sensor_id;sensor_type;location;lat;lon;timestamp;temperature;humidity
43894;DHT22;29556;50.846;4.442;2023-03-01T00:01:53;2.80;71.60
43894;DHT22;29556;50.846;4.442;2023-03-01T00:04:20;2.90;71.90
43894;DHT22;29556;50.846;4.442;2023-03-01T00:06:53;2.90;72.70
43894;DHT22;29556;50.846;4.442;2023-03-01T00:09:22;2.80;72.50
43894;DHT22;29556;50.846;4.442;2023-03-01T00:11:52;2.80;71.90
43894;DHT22;29556;50.846;4.442;2023-03-01T00:14:18;2.80;71.60
43894;DHT22;29556;50.846;4.442;2023-03-01T00:16:45;2.80;72.00
43894;DHT22;29556;50.846;4.442;2023-03-01T00:19:15;3.00;72.40
43894;DHT22;29556;50.846;4.442;2023-03-01T00:21:42;2.80;71.50
43894;DHT22;29556;50.846;4.442;2023-03-01T00:24:10;2.80;71.80
43894;DHT22;29556;50.846;4.442;2023-03-01T00:26:36;2.80;72.40
43894;DHT22;29556;50.846;4.442;2023-03-01T00:29:05;2.80;72.10
43894;DHT22;29556;50.846;4.442;2023-03-01T00:31:32;2.70;71.50
43894;DHT22;29556;50.846;4.442;2023-03-01T00:34:02;2.70;71.70
43894;DHT22;29556;50.846;4.442;2023-03-01T00:36:31;2.70;71.70
43894;DHT22;29556;50.846;4.442;2023-03-01T00:38:57;2.70;72.10
43894;DHT22;29556;50.846;4.442;2023-03-01T00:41:23;2.70;72.40
43894;DHT22;29556;50.846;4.442;2023-03-01T00:43:52;2.80;71.70
43894;DHT22;29556;50.846;4.442;2023-03-01T00:46:21;2.70;72.10
43894;DHT22;29556;50.846;4.442;2023-03-01T00:48:47;2.70;72.60
43894;DHT22;29556;50.846;4.442;2023-03-01T00:51:26;2.70;72.00
43894;DHT22;29556;50.846;4.442;2023-03-01T00:53:54;2.70;71.90
43894;DHT22;29556;50.846;4.442;2023-03-01T00:56:21;2.70;72.00
43894;DHT22;29556;50.846;4.442;2023-03-01T00:58:47;2.60;72.90
43894;DHT22;29556;50.846;4.442;2023-03-01T01:01:21;2.60;73.00
43894;DHT22;29556;50.846;4.442;2023-03-01T01:03:59;2.70;73.00
43894;DHT22;29556;50.846;4.442;2023-03-01T01:06:28;2.60;73.20
43894;DHT22;29556;50.846;4.442;2023-03-01T01:08:54;2.60;73.10
43894;DHT22;29556;50.846;4.442;2023-03-01T01:11:22;2.80;73.10
43894;DHT22;29556;50.846;4.442;2023-03-01T01:13:49;2.70;73.30
43894;DHT22;29556;50.846;4.442;2023-03-01T01:16:16;2.60;73.10
43894;DHT22;29556;50.846;4.442;2023-03-01T01:18:43;2.50;72.10
43894;DHT22;29556;50.846;4.442;2023-03-01T01:21:14;2.70;72.10
43894;DHT22;29556;50.846;4.442;2023-03-01T01:23:41;2.50;72.40
43894;DHT22;29556;50.846;4.442;2023-03-01T01:26:41;2.50;72.40
43894;DHT22;29556;50.846;4.442;2023-03-01T01:29:01;2.50;72.40
43894;DHT22;29556;50.846;4.442;2023-03-01T01:31:27;2.50;73.10
43894;DHT22;29556;50.846;4.442;2023-03-01T01:33:54;2.70;73.80
43894;DHT22;29556;50.846;4.442;2023-03-01T01:36:20;2.40;73.90
43894;DHT22;29556;50.846;4.442;2023-03-01T01:38:46;2.40;73.20
43894;DHT22;29556;50.846;4.442;2023-03-01T01:41:13;2.40;73.10
43894;DHT22;29556;50.846;4.442;2023-03-01T01:43:42;2.40;72.40
43894;DHT22;29556;50.846;4.442;2023-03-01T01:46:20;2.40;72.10
43894;DHT22;29556;50.846;4.442;2023-03-01T01:48:52;2.40;72.40
43894;DHT22;29556;50.846;4.442;2023-03-01T01:51:19;2.40;72.10
43894;DHT22;29556;50.846;4.442;2023-03-01T01:53:47;2.40;72.20
43894;DHT22;29556;50.846;4.442;2023-03-01T01:56:16;2.40;73.30
43894;DHT22;29556;50.846;4.442;2023-03-01T01:58:43;2.50;73.20
43894;DHT22;29556;50.846;4.442;2023-03-01T02:01:10;2.40;73.60
43894;DHT22;29556;50.846;4.442;2023-03-01T02:03:39;2.40;72.60
43894;DHT22;29556;50.846;4.442;2023-03-01T02:06:18;2.40;72.60
43894;DHT22;29556;50.846;4.442;2023-03-01T02:08:53;2.20;72.90
43894;DHT22;29556;50.846;4.442;2023-03-01T02:11:27;2.30;72.50
43894;DHT22;29556;50.846;4.442;2023-03-01T02:13:56;2.30;72.50
43894;DHT22;29556;50.846;4.442;2023-03-01T02:16:32;2.30;72.10
43894;DHT22;29556;50.846;4.442;2023-03-01T02:19:02;2.30;72.30
43894;DHT22;29556;50.846;4.442;2023-03-01T02:21:51;2.30;72.60
43894;DHT22;29556;50.846;4.442;2023-03-01T02:24:40;2.30;72.90
43894;DHT22;29556;50.846;4.442;2023-03-01T02:27:12;2.30;73.10
43894;DHT22;29556;50.846;4.442;2023-03-01T02:29:38;2.20;73.00
43894;DHT22;29556;50.846;4.442;2023-03-01T02:32:04;2.40;72.10
43894;DHT22;29556;50.846;4.442;2023-03-01T02:34:33;2.30;72.00
43894;DHT22;29556;50.846;4.442;2023-03-01T02:37:03;2.30;72.80
43894;DHT22;29556;50.846;4.442;2023-03-01T02:39:59;2.20;72.80
43894;DHT22;29556;50.846;4.442;2023-03-01T02:42:35;2.20;73.50
43894;DHT22;29556;50.846;4.442;2023-03-01T02:45:03;2.30;72.70
43894;DHT22;29556;50.846;4.442;2023-03-01T02:47:28;2.20;72.90
43894;DHT22;29556;50.846;4.442;2023-03-01T02:49:54;2.20;72.90
43894;DHT22;29556;50.846;4.442;2023-03-01T02:55:11;2.20;74.00
43894;DHT22;29556;50.846;4.442;2023-03-01T02:57:42;2.20;73.80
43894;DHT22;29556;50.846;4.442;2023-03-01T03:00:17;2.10;72.40
43894;DHT22;29556;50.846;4.442;2023-03-01T03:02:49;2.10;72.60
43894;DHT22;29556;50.846;4.442;2023-03-01T03:05:18;2.10;72.80
43894;DHT22;29556;50.846;4.442;2023-03-01T03:07:46;2.10;72.60
43894;DHT22;29556;50.846;4.442;2023-03-01T03:10:35;2.10;71.90
43894;DHT22;29556;50.846;4.442;2023-03-01T03:13:04;2.10;73.30
43894;DHT22;29556;50.846;4.442;2023-03-01T03:15:31;2.10;72.80
43894;DHT22;29556;50.846;4.442;2023-03-01T03:17:58;2.10;72.80
43894;DHT22;29556;50.846;4.442;2023-03-01T03:20:26;2.10;72.80
43894;DHT22;29556;50.846;4.442;2023-03-01T03:22:54;2.10;72.60
43894;DHT22;29556;50.846;4.442;2023-03-01T03:25:21;2.00;72.90
43894;DHT22;29556;50.846;4.442;2023-03-01T03:27:48;2.00;73.40
43894;DHT22;29556;50.846;4.442;2023-03-01T03:30:19;2.10;73.90
43894;DHT22;29556;50.846;4.442;2023-03-01T03:32:47;2.10;73.30
43894;DHT22;29556;50.846;4.442;2023-03-01T03:35:24;2.00;72.50
43894;DHT22;29556;50.846;4.442;2023-03-01T03:37:51;2.00;72.60
43894;DHT22;29556;50.846;4.442;2023-03-01T03:40:39;2.00;72.70
43894;DHT22;29556;50.846;4.442;2023-03-01T03:43:08;2.00;72.70
43894;DHT22;29556;50.846;4.442;2023-03-01T03:45:35;1.90;72.60
43894;DHT22;29556;50.846;4.442;2023-03-01T03:48:03;2.00;73.10
43894;DHT22;29556;50.846;4.442;2023-03-01T03:50:29;1.90;73.30
43894;DHT22;29556;50.846;4.442;2023-03-01T03:52:55;2.10;73.20
43894;DHT22;29556;50.846;4.442;2023-03-01T03:55:21;1.90;73.40
43894;DHT22;29556;50.846;4.442;2023-03-01T03:57:48;1.90;73.40
43894;DHT22;29556;50.846;4.442;2023-03-01T04:00:19;1.90;73.40
43894;DHT22;29556;50.846;4.442;2023-03-01T04:02:47;1.90;73.30
43894;DHT22;29556;50.846;4.442;2023-03-01T04:05:14;1.80;73.20
43894;DHT22;29556;50.846;4.442;2023-03-01T04:07:41;1.80;73.60
43894;DHT22;29556;50.846;4.442;2023-03-01T04:10:18;1.80;73.40
43894;DHT22;29556;50.846;4.442;2023-03-01T04:12:44;1.80;73.50
43894;DHT22;29556;50.846;4.442;2023-03-01T04:15:11;1.80;73.80
43894;DHT22;29556;50.846;4.442;2023-03-01T04:17:41;1.80;73.90
43894;DHT22;29556;50.846;4.442;2023-03-01T04:20:09;1.80;73.70
43894;DHT22;29556;50.846;4.442;2023-03-01T04:22:37;1.80;73.50
43894;DHT22;29556;50.846;4.442;2023-03-01T04:25:03;1.70;73.60
43894;DHT22;29556;50.846;4.442;2023-03-01T04:27:34;1.80;73.50
43894;DHT22;29556;50.846;4.442;2023-03-01T04:30:00;1.70;73.40
43894;DHT22;29556;50.846;4.442;2023-03-01T04:32:26;1.70;74.50
43894;DHT22;29556;50.846;4.442;2023-03-01T04:34:51;1.70;73.80
43894;DHT22;29556;50.846;4.442;2023-03-01T04:37:17;1.70;73.80
43894;DHT22;29556;50.846;4.442;2023-03-01T04:39:43;1.70;74.00
43894;DHT22;29556;50.846;4.442;2023-03-01T04:42:11;1.60;73.80
43894;DHT22;29556;50.846;4.442;2023-03-01T04:44:37;1.60;74.30
43894;DHT22;29556;50.846;4.442;2023-03-01T04:47:03;1.60;74.30
43894;DHT22;29556;50.846;4.442;2023-03-01T04:49:28;1.60;74.10
43894;DHT22;29556;50.846;4.442;2023-03-01T04:51:54;1.80;74.10
43894;DHT22;29556;50.846;4.442;2023-03-01T04:54:20;1.60;74.10
43894;DHT22;29556;50.846;4.442;2023-03-01T04:56:46;1.60;74.10
43894;DHT22;29556;50.846;4.442;2023-03-01T04:59:11;1.60;73.70
43894;DHT22;29556;50.846;4.442;2023-03-01T05:01:38;1.60;73.60
43894;DHT22;29556;50.846;4.442;2023-03-01T05:04:04;1.60;73.70
43894;DHT22;29556;50.846;4.442;2023-03-01T05:06:31;1.60;73.90
43894;DHT22;29556;50.846;4.442;2023-03-01T05:08:58;1.60;74.10
43894;DHT22;29556;50.846;4.442;2023-03-01T05:11:23;1.50;74.10
43894;DHT22;29556;50.846;4.442;2023-03-01T05:13:49;1.60;73.90
43894;DHT22;29556;50.846;4.442;2023-03-01T05:16:20;1.60;75.30
43894;DHT22;29556;50.846;4.442;2023-03-01T05:18:45;1.60;74.30
43894;DHT22;29556;50.846;4.442;2023-03-01T05:21:13;1.60;74.20
43894;DHT22;29556;50.846;4.442;2023-03-01T05:23:41;1.60;74.50
43894;DHT22;29556;50.846;4.442;2023-03-01T05:26:08;1.50;74.30
43894;DHT22;29556;50.846;4.442;2023-03-01T05:28:34;1.50;74.60
43894;DHT22;29556;50.846;4.442;2023-03-01T05:31:00;1.70;75.00
43894;DHT22;29556;50.846;4.442;2023-03-01T05:33:27;1.50;75.50
43894;DHT22;29556;50.846;4.442;2023-03-01T05:35:53;1.50;74.40
43894;DHT22;29556;50.846;4.442;2023-03-01T05:38:19;1.50;74.30
43894;DHT22;29556;50.846;4.442;2023-03-01T05:40:47;1.50;74.20
43894;DHT22;29556;50.846;4.442;2023-03-01T05:43:15;1.50;74.30
43894;DHT22;29556;50.846;4.442;2023-03-01T05:45:41;1.50;74.40
43894;DHT22;29556;50.846;4.442;2023-03-01T05:48:09;1.50;74.20
43894;DHT22;29556;50.846;4.442;2023-03-01T05:50:37;1.40;74.70
43894;DHT22;29556;50.846;4.442;2023-03-01T05:53:25;1.40;74.50
43894;DHT22;29556;50.846;4.442;2023-03-01T05:55:51;1.40;74.70
43894;DHT22;29556;50.846;4.442;2023-03-01T05:58:19;1.40;74.80
43894;DHT22;29556;50.846;4.442;2023-03-01T06:00:46;1.40;74.80
43894;DHT22;29556;50.846;4.442;2023-03-01T06:03:14;1.40;74.70
43894;DHT22;29556;50.846;4.442;2023-03-01T06:05:40;1.40;74.70
43894;DHT22;29556;50.846;4.442;2023-03-01T06:08:07;1.40;75.20
43894;DHT22;29556;50.846;4.442;2023-03-01T06:10:33;1.40;75.20
43894;DHT22;29556;50.846;4.442;2023-03-01T06:12:58;1.40;75.50
43894;DHT22;29556;50.846;4.442;2023-03-01T06:15:25;1.40;75.10
43894;DHT22;29556;50.846;4.442;2023-03-01T06:17:52;1.30;75.20
43894;DHT22;29556;50.846;4.442;2023-03-01T06:20:21;1.40;75.20
43894;DHT22;29556;50.846;4.442;2023-03-01T06:22:49;1.30;75.10
43894;DHT22;29556;50.846;4.442;2023-03-01T06:25:18;1.40;75.00
43894;DHT22;29556;50.846;4.442;2023-03-01T06:27:45;1.40;75.00
43894;DHT22;29556;50.846;4.442;2023-03-01T06:30:14;1.40;75.40
43894;DHT22;29556;50.846;4.442;2023-03-01T06:32:42;1.40;75.40
43894;DHT22;29556;50.846;4.442;2023-03-01T06:35:11;1.30;75.40
43894;DHT22;29556;50.846;4.442;2023-03-01T06:37:41;1.30;75.40
43894;DHT22;29556;50.846;4.442;2023-03-01T06:40:08;1.50;75.60
43894;DHT22;29556;50.846;4.442;2023-03-01T06:42:36;1.40;75.40
43894;DHT22;29556;50.846;4.442;2023-03-01T06:45:03;1.40;75.30
43894;DHT22;29556;50.846;4.442;2023-03-01T06:47:31;1.40;75.40
43894;DHT22;29556;50.846;4.442;2023-03-01T06:49:59;1.40;75.30
43894;DHT22;29556;50.846;4.442;2023-03-01T06:52:24;1.40;75.30
43894;DHT22;29556;50.846;4.442;2023-03-01T06:54:50;1.40;75.30
43894;DHT22;29556;50.846;4.442;2023-03-01T06:57:16;1.40;75.00
43894;DHT22;29556;50.846;4.442;2023-03-01T06:59:42;1.40;75.10
43894;DHT22;29556;50.846;4.442;2023-03-01T07:02:10;1.40;75.10
43894;DHT22;29556;50.846;4.442;2023-03-01T07:04:36;1.30;75.20
43894;DHT22;29556;50.846;4.442;2023-03-01T07:07:02;1.40;75.40
43894;DHT22;29556;50.846;4.442;2023-03-01T07:09:28;1.40;75.30
43894;DHT22;29556;50.846;4.442;2023-03-01T07:11:54;1.40;75.50
43894;DHT22;29556;50.846;4.442;2023-03-01T07:14:19;1.50;75.80
43894;DHT22;29556;50.846;4.442;2023-03-01T07:16:46;1.60;76.60
43894;DHT22;29556;50.846;4.442;2023-03-01T07:19:12;1.50;75.80
43894;DHT22;29556;50.846;4.442;2023-03-01T07:21:37;1.50;75.80
43894;DHT22;29556;50.846;4.442;2023-03-01T07:24:06;1.50;75.50
43894;DHT22;29556;50.846;4.442;2023-03-01T07:26:32;1.60;75.40
43894;DHT22;29556;50.846;4.442;2023-03-01T07:29:03;1.60;76.20
43894;DHT22;29556;50.846;4.442;2023-03-01T07:31:28;1.60;75.40
43894;DHT22;29556;50.846;4.442;2023-03-01T07:33:55;1.60;75.50
43894;DHT22;29556;50.846;4.442;2023-03-01T07:39:43;1.70;75.30
43894;DHT22;29556;50.846;4.442;2023-03-01T07:42:33;1.70;75.00
43894;DHT22;29556;50.846;4.442;2023-03-01T07:45:00;1.80;75.30
43894;DHT22;29556;50.846;4.442;2023-03-01T07:47:29;1.70;75.50
43894;DHT22;29556;50.846;4.442;2023-03-01T07:49:57;1.80;74.80
43894;DHT22;29556;50.846;4.442;2023-03-01T07:52:23;2.00;74.70
43894;DHT22;29556;50.846;4.442;2023-03-01T07:54:52;2.00;74.90
43894;DHT22;29556;50.846;4.442;2023-03-01T07:57:25;2.10;75.00
43894;DHT22;29556;50.846;4.442;2023-03-01T07:59:57;2.00;74.80
43894;DHT22;29556;50.846;4.442;2023-03-01T08:02:23;2.00;74.70
43894;DHT22;29556;50.846;4.442;2023-03-01T08:04:51;2.20;75.00
43894;DHT22;29556;50.846;4.442;2023-03-01T08:07:21;2.10;73.90
43894;DHT22;29556;50.846;4.442;2023-03-01T08:09:49;2.20;73.90
43894;DHT22;29556;50.846;4.442;2023-03-01T08:12:17;2.20;74.10
43894;DHT22;29556;50.846;4.442;2023-03-01T08:14:46;2.30;73.50
43894;DHT22;29556;50.846;4.442;2023-03-01T08:17:16;2.40;73.10
43894;DHT22;29556;50.846;4.442;2023-03-01T08:19:44;2.40;72.90
43894;DHT22;29556;50.846;4.442;2023-03-01T08:22:12;2.60;73.40
43894;DHT22;29556;50.846;4.442;2023-03-01T08:24:38;2.50;73.50
43894;DHT22;29556;50.846;4.442;2023-03-01T08:30:26;2.60;73.30
43894;DHT22;29556;50.846;4.442;2023-03-01T08:32:52;2.70;72.90
43894;DHT22;29556;50.846;4.442;2023-03-01T08:35:18;2.60;72.60
43894;DHT22;29556;50.846;4.442;2023-03-01T08:37:44;2.70;72.60
43894;DHT22;29556;50.846;4.442;2023-03-01T08:40:10;2.70;72.50
43894;DHT22;29556;50.846;4.442;2023-03-01T08:42:37;2.90;72.70
43894;DHT22;29556;50.846;4.442;2023-03-01T08:45:03;3.00;72.70
43894;DHT22;29556;50.846;4.442;2023-03-01T08:47:29;2.90;72.20
43894;DHT22;29556;50.846;4.442;2023-03-01T08:49:55;2.90;72.30
43894;DHT22;29556;50.846;4.442;2023-03-01T08:52:22;3.10;72.30
43894;DHT22;29556;50.846;4.442;2023-03-01T08:54:52;3.00;72.00
43894;DHT22;29556;50.846;4.442;2023-03-01T08:57:17;3.10;71.50
43894;DHT22;29556;50.846;4.442;2023-03-01T08:59:43;3.10;71.80
43894;DHT22;29556;50.846;4.442;2023-03-01T09:02:14;3.20;70.60
43894;DHT22;29556;50.846;4.442;2023-03-01T09:04:40;3.30;71.00
43894;DHT22;29556;50.846;4.442;2023-03-01T09:07:07;3.40;71.00
43894;DHT22;29556;50.846;4.442;2023-03-01T09:09:32;3.40;70.70
43894;DHT22;29556;50.846;4.442;2023-03-01T09:12:03;3.60;70.70
43894;DHT22;29556;50.846;4.442;2023-03-01T09:14:29;3.50;70.50
43894;DHT22;29556;50.846;4.442;2023-03-01T09:16:54;3.50;70.40
43894;DHT22;29556;50.846;4.442;2023-03-01T09:19:20;3.60;70.50
43894;DHT22;29556;50.846;4.442;2023-03-01T09:21:46;3.60;69.80
43894;DHT22;29556;50.846;4.442;2023-03-01T09:24:18;3.80;69.80
43894;DHT22;29556;50.846;4.442;2023-03-01T09:26:44;3.70;69.50
43894;DHT22;29556;50.846;4.442;2023-03-01T09:29:14;3.80;69.10
43894;DHT22;29556;50.846;4.442;2023-03-01T09:31:41;3.80;69.50
43894;DHT22;29556;50.846;4.442;2023-03-01T09:34:07;3.90;69.40
43894;DHT22;29556;50.846;4.442;2023-03-01T09:36:34;4.10;68.70
43894;DHT22;29556;50.846;4.442;2023-03-01T09:39:00;4.00;68.50
43894;DHT22;29556;50.846;4.442;2023-03-01T09:44:26;4.20;69.10
43894;DHT22;29556;50.846;4.442;2023-03-01T09:46:55;4.00;67.40
43894;DHT22;29556;50.846;4.442;2023-03-01T09:49:25;4.10;67.60
43894;DHT22;29556;50.846;4.442;2023-03-01T09:54:45;4.10;66.50
43894;DHT22;29556;50.846;4.442;2023-03-01T09:57:41;4.30;66.90
43894;DHT22;29556;50.846;4.442;2023-03-01T10:00:44;4.20;66.00
43894;DHT22;29556;50.846;4.442;2023-03-01T10:03:17;4.10;65.90
43894;DHT22;29556;50.846;4.442;2023-03-01T10:08:41;4.20;65.80
43894;DHT22;29556;50.846;4.442;2023-03-01T10:11:28;4.10;65.50
43894;DHT22;29556;50.846;4.442;2023-03-01T10:14:06;4.30;65.80
43894;DHT22;29556;50.846;4.442;2023-03-01T10:19:45;4.30;65.80
43894;DHT22;29556;50.846;4.442;2023-03-01T10:22:24;4.40;64.90
43894;DHT22;29556;50.846;4.442;2023-03-01T10:24:54;4.40;64.90
43894;DHT22;29556;50.846;4.442;2023-03-01T10:27:46;4.60;64.10
43894;DHT22;29556;50.846;4.442;2023-03-01T10:30:37;4.40;63.40
43894;DHT22;29556;50.846;4.442;2023-03-01T10:33:17;4.60;63.60
43894;DHT22;29556;50.846;4.442;2023-03-01T10:35:43;4.80;63.10
43894;DHT22;29556;50.846;4.442;2023-03-01T10:38:11;4.70;62.30
43894;DHT22;29556;50.846;4.442;2023-03-01T10:40:55;4.70;63.00
43894;DHT22;29556;50.846;4.442;2023-03-01T10:43:40;4.70;62.90
43894;DHT22;29556;50.846;4.442;2023-03-01T10:46:29;4.80;63.10
43894;DHT22;29556;50.846;4.442;2023-03-01T10:49:19;4.80;62.70
43894;DHT22;29556;50.846;4.442;2023-03-01T10:51:47;5.00;61.70
43894;DHT22;29556;50.846;4.442;2023-03-01T10:54:22;5.10;61.90
43894;DHT22;29556;50.846;4.442;2023-03-01T10:56:52;5.20;61.10
43894;DHT22;29556;50.846;4.442;2023-03-01T10:59:38;5.20;61.30
43894;DHT22;29556;50.846;4.442;2023-03-01T11:02:16;5.30;61.10
43894;DHT22;29556;50.846;4.442;2023-03-01T11:07:25;5.50;60.90
43894;DHT22;29556;50.846;4.442;2023-03-01T11:09:50;5.50;60.90
43894;DHT22;29556;50.846;4.442;2023-03-01T11:12:17;5.60;60.00
43894;DHT22;29556;50.846;4.442;2023-03-01T11:14:53;5.60;59.90
43894;DHT22;29556;50.846;4.442;2023-03-01T11:17:29;5.60;59.50
43894;DHT22;29556;50.846;4.442;2023-03-01T11:22:53;5.80;59.00
43894;DHT22;29556;50.846;4.442;2023-03-01T11:25:24;5.80;58.20
43894;DHT22;29556;50.846;4.442;2023-03-01T11:27:53;5.90;59.00
43894;DHT22;29556;50.846;4.442;2023-03-01T11:33:59;5.90;58.80
43894;DHT22;29556;50.846;4.442;2023-03-01T11:39:03;6.00;58.40
43894;DHT22;29556;50.846;4.442;2023-03-01T11:41:33;5.90;57.60
43894;DHT22;29556;50.846;4.442;2023-03-01T11:44:04;5.90;56.90
43894;DHT22;29556;50.846;4.442;2023-03-01T11:55:17;6.00;58.00
43894;DHT22;29556;50.846;4.442;2023-03-01T12:04:11;6.20;56.50
43894;DHT22;29556;50.846;4.442;2023-03-01T12:15:00;6.10;55.50
43894;DHT22;29556;50.846;4.442;2023-03-01T12:17:51;6.30;55.80
43894;DHT22;29556;50.846;4.442;2023-03-01T12:26:40;6.50;56.60
43894;DHT22;29556;50.846;4.442;2023-03-01T12:32:39;6.30;55.10
43894;DHT22;29556;50.846;4.442;2023-03-01T12:43:27;6.50;54.70
43894;DHT22;29556;50.846;4.442;2023-03-01T12:51:30;6.50;54.60
43894;DHT22;29556;50.846;4.442;2023-03-01T12:53:59;6.60;54.80
43894;DHT22;29556;50.846;4.442;2023-03-01T12:56:30;6.60;55.10
43894;DHT22;29556;50.846;4.442;2023-03-01T12:59:13;6.90;55.20
43894;DHT22;29556;50.846;4.442;2023-03-01T13:05:24;6.80;54.30
43894;DHT22;29556;50.846;4.442;2023-03-01T13:08:07;6.80;54.60
43894;DHT22;29556;50.846;4.442;2023-03-01T13:10:43;6.80;54.40
43894;DHT22;29556;50.846;4.442;2023-03-01T13:13:14;6.80;53.60
43894;DHT22;29556;50.846;4.442;2023-03-01T13:15:43;6.90;53.70
43894;DHT22;29556;50.846;4.442;2023-03-01T13:26:01;7.10;54.20
43894;DHT22;29556;50.846;4.442;2023-03-01T13:28:53;6.90;54.00
43894;DHT22;29556;50.846;4.442;2023-03-01T13:34:38;7.00;54.30
43894;DHT22;29556;50.846;4.442;2023-03-01T13:37:09;7.10;53.70
43894;DHT22;29556;50.846;4.442;2023-03-01T13:39:40;7.20;54.00
43894;DHT22;29556;50.846;4.442;2023-03-01T13:42:31;7.10;53.90
43894;DHT22;29556;50.846;4.442;2023-03-01T13:45:00;7.10;53.60
43894;DHT22;29556;50.846;4.442;2023-03-01T13:47:26;7.30;53.30
43894;DHT22;29556;50.846;4.442;2023-03-01T13:50:04;7.40;52.70
43894;DHT22;29556;50.846;4.442;2023-03-01T13:52:41;7.20;52.50
43894;DHT22;29556;50.846;4.442;2023-03-01T13:57:57;7.20;52.00
43894;DHT22;29556;50.846;4.442;2023-03-01T14:00:33;7.30;52.40
43894;DHT22;29556;50.846;4.442;2023-03-01T14:05:30;7.30;52.50
43894;DHT22;29556;50.846;4.442;2023-03-01T14:07:56;7.20;52.70
43894;DHT22;29556;50.846;4.442;2023-03-01T14:10:22;7.20;52.50
43894;DHT22;29556;50.846;4.442;2023-03-01T14:12:58;7.50;52.50
43894;DHT22;29556;50.846;4.442;2023-03-01T14:15:34;7.50;53.10
43894;DHT22;29556;50.846;4.442;2023-03-01T14:20:32;7.50;52.40
43894;DHT22;29556;50.846;4.442;2023-03-01T14:23:02;7.50;53.00
43894;DHT22;29556;50.846;4.442;2023-03-01T14:25:35;7.40;52.00
43894;DHT22;29556;50.846;4.442;2023-03-01T14:30:48;7.30;52.30
43894;DHT22;29556;50.846;4.442;2023-03-01T14:33:41;7.30;51.60
43894;DHT22;29556;50.846;4.442;2023-03-01T14:36:13;7.40;52.40
43894;DHT22;29556;50.846;4.442;2023-03-01T14:41:21;7.60;52.50
43894;DHT22;29556;50.846;4.442;2023-03-01T14:43:51;7.60;52.20
43894;DHT22;29556;50.846;4.442;2023-03-01T14:48:47;7.60;52.20
43894;DHT22;29556;50.846;4.442;2023-03-01T14:51:13;7.60;52.30
43894;DHT22;29556;50.846;4.442;2023-03-01T14:53:39;7.50;51.60
43894;DHT22;29556;50.846;4.442;2023-03-01T14:56:05;7.60;51.60
43894;DHT22;29556;50.846;4.442;2023-03-01T14:58:33;7.60;52.40
43894;DHT22;29556;50.846;4.442;2023-03-01T15:01:01;7.80;52.10
43894;DHT22;29556;50.846;4.442;2023-03-01T15:03:35;7.60;51.90
43894;DHT22;29556;50.846;4.442;2023-03-01T15:06:05;7.80;52.20
43894;DHT22;29556;50.846;4.442;2023-03-01T15:08:32;7.60;52.30
43894;DHT22;29556;50.846;4.442;2023-03-01T15:11:24;7.60;52.10
43894;DHT22;29556;50.846;4.442;2023-03-01T15:13:52;7.60;52.00
43894;DHT22;29556;50.846;4.442;2023-03-01T15:16:30;7.50;51.70
43894;DHT22;29556;50.846;4.442;2023-03-01T15:19:05;7.60;51.90
43894;DHT22;29556;50.846;4.442;2023-03-01T15:21:38;7.80;52.00
43894;DHT22;29556;50.846;4.442;2023-03-01T15:26:45;7.80;52.00
43894;DHT22;29556;50.846;4.442;2023-03-01T15:29:18;7.90;52.20
43894;DHT22;29556;50.846;4.442;2023-03-01T15:31:54;7.80;52.10
43894;DHT22;29556;50.846;4.442;2023-03-01T15:34:27;7.80;52.20
43894;DHT22;29556;50.846;4.442;2023-03-01T15:36:54;7.80;52.90
43894;DHT22;29556;50.846;4.442;2023-03-01T15:39:40;7.60;52.20
43894;DHT22;29556;50.846;4.442;2023-03-01T15:47:51;7.50;51.80
43894;DHT22;29556;50.846;4.442;2023-03-01T15:50:22;7.60;52.70
43894;DHT22;29556;50.846;4.442;2023-03-01T15:52:47;7.60;52.40
43894;DHT22;29556;50.846;4.442;2023-03-01T15:55:19;7.60;52.70
43894;DHT22;29556;50.846;4.442;2023-03-01T15:57:45;7.60;52.30
43894;DHT22;29556;50.846;4.442;2023-03-01T16:00:13;7.80;52.90
43894;DHT22;29556;50.846;4.442;2023-03-01T16:02:43;7.60;52.60
43894;DHT22;29556;50.846;4.442;2023-03-01T16:05:22;7.70;52.70
43894;DHT22;29556;50.846;4.442;2023-03-01T16:07:48;7.70;52.60
43894;DHT22;29556;50.846;4.442;2023-03-01T16:10:15;7.70;52.60
43894;DHT22;29556;50.846;4.442;2023-03-01T16:12:40;7.70;52.80
43894;DHT22;29556;50.846;4.442;2023-03-01T16:15:27;7.80;52.90
43894;DHT22;29556;50.846;4.442;2023-03-01T16:17:53;7.70;53.10
43894;DHT22;29556;50.846;4.442;2023-03-01T16:20:19;7.70;51.90
43894;DHT22;29556;50.846;4.442;2023-03-01T16:22:46;7.70;51.90
43894;DHT22;29556;50.846;4.442;2023-03-01T16:25:17;7.70;52.10
43894;DHT22;29556;50.846;4.442;2023-03-01T16:27:44;7.70;51.70
43894;DHT22;29556;50.846;4.442;2023-03-01T16:30:12;7.60;52.00
43894;DHT22;29556;50.846;4.442;2023-03-01T16:32:42;7.60;51.90
43894;DHT22;29556;50.846;4.442;2023-03-01T16:35:10;7.50;51.40
43894;DHT22;29556;50.846;4.442;2023-03-01T16:37:37;7.50;52.00
43894;DHT22;29556;50.846;4.442;2023-03-01T16:40:04;7.50;51.90
43894;DHT22;29556;50.846;4.442;2023-03-01T16:42:34;7.50;51.80
43894;DHT22;29556;50.846;4.442;2023-03-01T16:45:00;7.50;51.60
43894;DHT22;29556;50.846;4.442;2023-03-01T16:47:27;7.50;51.90
43894;DHT22;29556;50.846;4.442;2023-03-01T16:49:53;7.60;52.30
43894;DHT22;29556;50.846;4.442;2023-03-01T16:52:20;7.50;52.10
43894;DHT22;29556;50.846;4.442;2023-03-01T16:54:45;7.50;52.30
43894;DHT22;29556;50.846;4.442;2023-03-01T16:57:11;7.50;52.90
43894;DHT22;29556;50.846;4.442;2023-03-01T16:59:36;7.40;52.50
43894;DHT22;29556;50.846;4.442;2023-03-01T17:02:03;7.40;52.40
43894;DHT22;29556;50.846;4.442;2023-03-01T17:04:30;7.30;52.80
43894;DHT22;29556;50.846;4.442;2023-03-01T17:06:56;7.50;53.60
43894;DHT22;29556;50.846;4.442;2023-03-01T17:09:22;7.50;54.80
43894;DHT22;29556;50.846;4.442;2023-03-01T17:11:48;7.30;55.80
43894;DHT22;29556;50.846;4.442;2023-03-01T17:14:15;7.20;55.00
43894;DHT22;29556;50.846;4.442;2023-03-01T17:16:41;7.20;54.80
43894;DHT22;29556;50.846;4.442;2023-03-01T17:19:07;7.30;56.20
43894;DHT22;29556;50.846;4.442;2023-03-01T17:21:33;7.20;55.40
43894;DHT22;29556;50.846;4.442;2023-03-01T17:23:59;7.10;55.40
43894;DHT22;29556;50.846;4.442;2023-03-01T17:26:25;7.10;56.60
43894;DHT22;29556;50.846;4.442;2023-03-01T17:28:51;7.00;58.30
43894;DHT22;29556;50.846;4.442;2023-03-01T17:31:18;6.90;58.30
43894;DHT22;29556;50.846;4.442;2023-03-01T17:33:44;6.80;57.90
43894;DHT22;29556;50.846;4.442;2023-03-01T17:36:10;6.80;58.30
43894;DHT22;29556;50.846;4.442;2023-03-01T17:38:36;6.60;57.60
43894;DHT22;29556;50.846;4.442;2023-03-01T17:41:03;6.60;57.70
43894;DHT22;29556;50.846;4.442;2023-03-01T17:43:30;6.60;57.60
43894;DHT22;29556;50.846;4.442;2023-03-01T17:45:58;6.50;57.90
43894;DHT22;29556;50.846;4.442;2023-03-01T17:48:25;6.50;58.10
43894;DHT22;29556;50.846;4.442;2023-03-01T17:50:51;6.50;58.20
43894;DHT22;29556;50.846;4.442;2023-03-01T17:53:17;6.60;58.80
43894;DHT22;29556;50.846;4.442;2023-03-01T17:55:43;6.50;58.80
43894;DHT22;29556;50.846;4.442;2023-03-01T17:58:11;6.40;57.50
43894;DHT22;29556;50.846;4.442;2023-03-01T18:00:38;6.30;57.30